Time;durP1;ratioP1;P1;durP2;ratioP2;P2;SDS_P1;SDS_P2;PMS_P1;PMS_P2;Temp;Humidity;BMP_temperature;BMP_pressure;BME280_temperature;BME280_humidity;BME280_pressure;Samples;Min_cycle;Max_cycle;Signal;HPM_P1;HPM_P2
2023/04/20 00:02:01;;;;;;;0.38;0.10;;;7.20;74.30;;;;;;5077905;28;20016;-75
2023/04/20 00:04:28;;;;;;;3.30;0.10;;;7.10;74.40;;;;;;5095775;28;20059;-75
2023/04/20 00:06:55;;;;;;;4.50;0.32;;;7.00;75.50;;;;;;5077536;28;20038;-75
2023/04/20 00:09:22;;;;;;;0.80;0.10;;;7.00;75.70;;;;;;5077068;28;20055;-75
2023/04/20 00:11:47;;;;;;;0.85;0.10;;;7.60;76.90;;;;;;5095554;28;20411;-75
2023/04/20 00:14:14;;;;;;;1.35;0.10;;;6.90;78.20;;;;;;5078004;28;20032;-75
2023/04/20 00:16:40;;;;;;;3.85;0.32;;;6.70;77.90;;;;;;5076958;28;20020;-77
2023/04/20 00:19:06;;;;;;;1.15;0.00;;;6.70;78.60;;;;;;5077345;28;20039;-75
2023/04/20 00:21:32;;;;;;;2.90;0.38;;;6.60;79.30;;;;;;5095624;28;20390;-75
2023/04/20 00:23:58;;;;;;;1.13;0.20;;;6.50;79.60;;;;;;5095635;28;20062;-75
2023/04/20 00:26:24;;;;;;;9.00;0.20;;;6.60;78.60;;;;;;5095825;28;20051;-75
2023/04/20 00:28:50;;;;;;;2.80;0.20;;;6.50;80.90;;;;;;5095977;28;20055;-76
2023/04/20 00:31:16;;;;;;;1.55;0.15;;;6.40;81.20;;;;;;5095321;28;20024;-75
2023/04/20 00:33:42;;;;;;;2.42;0.20;;;6.40;81.00;;;;;;5095085;28;20028;-76
2023/04/20 00:36:08;;;;;;;1.85;0.28;;;6.40;81.40;;;;;;5095514;28;20099;-76
2023/04/20 00:38:34;;;;;;;0.88;0.00;;;6.30;79.50;;;;;;5077397;28;20031;-75
2023/04/20 00:41:00;;;;;;;1.38;0.10;;;6.30;81.60;;;;;;5095494;28;20024;-75
2023/04/20 00:43:25;;;;;;;3.58;0.13;;;6.30;81.70;;;;;;5077046;28;20018;-75
2023/04/20 00:45:51;;;;;;;0.88;0.20;;;6.30;80.40;;;;;;5095364;28;20073;-75
2023/04/20 00:48:20;;;;;;;3.60;0.20;;;6.20;79.60;;;;;;5076411;28;20074;-75
2023/04/20 00:50:45;;;;;;;;;;;6.20;80.70;;;;;;5077061;28;20024;-75
2023/04/20 00:53:12;;;;;;;1.77;0.40;;;6.10;81.20;;;;;;5094641;28;19994;-75
2023/04/20 00:55:38;;;;;;;0.63;0.20;;;6.10;81.30;;;;;;5076733;28;20027;-75
2023/04/20 00:58:05;;;;;;;1.00;0.10;;;6.10;81.70;;;;;;5095052;28;20062;-75
2023/04/20 01:00:31;;;;;;;1.83;0.10;;;6.10;82.00;;;;;;5076913;28;20498;-74
2023/04/20 01:02:57;;;;;;;1.55;0.20;;;6.00;84.10;;;;;;5076109;28;20017;-75
2023/04/20 01:05:23;;;;;;;2.38;0.45;;;6.00;83.90;;;;;;5094720;28;20024;-74
2023/04/20 01:07:48;;;;;;;1.13;0.10;;;6.00;84.00;;;;;;5095123;28;20028;-75
2023/04/20 01:10:14;;;;;;;9.05;0.80;;;5.90;85.20;;;;;;5076784;28;20125;-74
2023/04/20 01:12:40;;;;;;;0.95;0.10;;;5.90;85.50;;;;;;5094988;28;20020;-75
2023/04/20 01:15:07;;;;;;;1.23;0.13;;;5.90;85.40;;;;;;5076897;28;20024;-75
2023/04/20 01:17:38;;;;;;;2.45;0.10;;;5.90;88.70;;;;;;5076463;28;20542;-75
2023/04/20 01:20:11;;;;;;;1.25;0.10;;;5.80;89.20;;;;;;5094625;28;20016;-75
2023/04/20 01:22:48;;;;;;;1.30;0.30;;;5.80;89.10;;;;;;5094082;28;20051;-76
2023/04/20 01:25:15;;;;;;;1.77;0.20;;;5.80;90.00;;;;;;5076988;28;20028;-75
2023/04/20 01:27:40;;;;;;;3.25;0.13;;;5.90;89.40;;;;;;5076550;28;20096;-76
2023/04/20 01:30:10;;;;;;;1.38;0.15;;;5.90;90.00;;;;;;5076296;28;20176;-75
2023/04/20 01:32:36;;;;;;;0.15;0.00;;;6.00;90.20;;;;;;5076438;28;20023;-75
2023/04/20 01:35:02;;;;;;;2.05;0.25;;;6.10;90.10;;;;;;5094324;28;20077;-75
2023/04/20 01:37:28;;;;;;;4.75;0.20;;;6.10;90.40;;;;;;5094030;28;20027;-76
2023/04/20 01:39:53;;;;;;;0.73;0.17;;;6.00;90.70;;;;;;5093976;28;20020;-75
2023/04/20 01:42:19;;;;;;;3.25;0.30;;;6.00;90.90;;;;;;5076056;28;20019;-75
2023/04/20 01:44:45;;;;;;;0.73;0.10;;;6.00;91.10;;;;;;5076560;28;20017;-75
2023/04/20 01:47:11;;;;;;;0.93;0.10;;;6.00;91.20;;;;;;5075631;28;20024;-75
2023/04/20 01:49:36;;;;;;;2.05;0.40;;;6.00;91.60;;;;;;5076271;28;20383;-75
2023/04/20 01:52:02;;;;;;;3.17;0.30;;;6.00;91.60;;;;;;5094357;28;20224;-76
2023/04/20 01:54:27;;;;;;;1.20;0.43;;;5.90;92.20;;;;;;5076112;28;20036;-75
2023/04/20 01:56:53;;;;;;;0.93;0.10;;;;;;;;;;5093989;28;20031;-75
2023/04/20 01:59:19;;;;;;;3.03;0.40;;;5.90;92.40;;;;;;5076066;28;20395;-75
2023/04/20 02:01:44;;;;;;;1.38;0.40;;;5.80;93.00;;;;;;5075642;28;20018;-75
2023/04/20 02:04:10;;;;;;;1.23;0.20;;;5.80;93.50;;;;;;5075532;28;20022;-74
2023/04/20 02:06:35;;;;;;;1.45;0.40;;;5.70;94.50;;;;;;5075923;28;20047;-75
2023/04/20 02:09:01;;;;;;;1.23;0.10;;;5.70;94.80;;;;;;5075973;28;20020;-75
2023/04/20 02:11:27;;;;;;;2.97;0.40;;;5.70;95.50;;;;;;5076190;28;20052;-75
2023/04/20 02:13:52;;;;;;;1.25;0.15;;;5.70;96.20;;;;;;5094067;28;20031;-75
2023/04/20 02:16:18;;;;;;;1.67;0.30;;;5.80;96.60;;;;;;5094271;28;20031;-76
2023/04/20 02:18:44;;;;;;;1.35;0.40;;;5.90;96.80;;;;;;5094030;28;20059;-75
2023/04/20 02:21:10;;;;;;;2.20;0.10;;;5.90;97.70;;;;;;5093489;28;20023;-75
2023/04/20 02:23:36;;;;;;;5.13;0.55;;;5.90;98.70;;;;;;5075802;28;20028;-75
2023/04/20 02:26:01;;;;;;;1.17;0.47;;;6.00;99.50;;;;;;5094197;28;20016;-75
2023/04/20 02:28:27;;;;;;;0.93;0.30;;;6.00;99.80;;;;;;5075948;28;20026;-75
2023/04/20 02:30:53;;;;;;;2.47;0.60;;;6.20;99.90;;;;;;5093268;28;20039;-75
2023/04/20 02:33:20;;;;;;;1.77;0.15;;;6.20;99.90;;;;;;5095388;28;20150;-75
2023/04/20 02:35:46;;;;;;;3.50;0.40;;;;;;;;;;5079807;28;20020;-75
2023/04/20 02:38:12;;;;;;;0.60;0.20;;;6.40;99.90;;;;;;5097318;28;20391;-75
2023/04/20 02:40:37;;;;;;;1.75;0.40;;;6.50;99.90;;;;;;5079650;28;20062;-75
2023/04/20 02:43:03;;;;;;;3.20;0.20;;;6.60;99.90;;;;;;5098141;28;20024;-75
2023/04/20 02:45:29;;;;;;;1.38;0.20;;;6.60;99.90;;;;;;5097495;28;20422;-74
2023/04/20 02:47:56;;;;;;;2.35;0.17;;;6.70;99.90;;;;;;5079550;28;20032;-74
2023/04/20 02:50:21;;;;;;;3.42;0.30;;;6.70;99.90;;;;;;5097666;28;20402;-74
2023/04/20 02:52:47;;;;;;;2.83;0.32;;;6.80;99.90;;;;;;5079180;28;20023;-75
2023/04/20 02:55:12;;;;;;;2.47;0.43;;;6.80;99.90;;;;;;5097399;28;20032;-75
2023/04/20 02:57:38;;;;;;;2.20;0.20;;;6.70;99.90;;;;;;5097126;28;20495;-74
2023/04/20 03:00:07;;;;;;;3.75;0.20;;;6.70;99.90;;;;;;5097514;28;20490;-75
2023/04/20 03:02:33;;;;;;;2.13;0.17;;;6.70;99.90;;;;;;5079379;28;20387;-75
2023/04/20 03:04:58;;;;;;;3.40;0.30;;;6.70;99.90;;;;;;5079280;28;20020;-75
2023/04/20 03:07:25;;;;;;;2.30;0.28;;;6.70;99.90;;;;;;5097348;28;20016;-75
2023/04/20 03:09:50;;;;;;;1.73;0.47;;;6.80;99.90;;;;;;5079067;28;20058;-75
2023/04/20 03:12:17;;;;;;;1.20;0.22;;;6.80;99.90;;;;;;5096982;28;20028;-75
2023/04/20 03:14:43;;;;;;;1.42;0.22;;;7.00;99.90;;;;;;5078754;28;20035;-75
2023/04/20 03:17:08;;;;;;;1.88;0.20;;;7.10;99.90;;;;;;5078882;28;20020;-75
2023/04/20 03:19:35;;;;;;;1.70;0.22;;;7.20;99.90;;;;;;5078933;28;20081;-75
2023/04/20 03:22:01;;;;;;;1.40;0.10;;;7.20;99.90;;;;;;5097834;28;20024;-75
2023/04/20 03:24:26;;;;;;;0.28;0.00;;;7.20;99.90;;;;;;5078476;28;20031;-75
2023/04/20 03:26:52;;;;;;;0.80;0.20;;;7.40;99.90;;;;;;5078981;28;20551;-76
2023/04/20 03:29:17;;;;;;;1.80;0.10;;;7.40;99.90;;;;;;5078771;28;20047;-75
2023/04/20 03:31:43;;;;;;;3.30;0.10;;;7.50;99.90;;;;;;5079013;28;20047;-75
2023/04/20 03:34:09;;;;;;;0.85;0.00;;;8.50;99.90;;;;;;5078633;28;20070;-75
2023/04/20 03:36:35;;;;;;;3.58;0.40;;;7.70;99.90;;;;;;5096729;28;20491;-75
2023/04/20 03:39:01;;;;;;;1.17;0.10;;;8.20;99.90;;;;;;5077975;28;20016;-75
2023/04/20 03:41:26;;;;;;;2.85;0.20;;;7.70;99.90;;;;;;5096566;28;20074;-75
2023/04/20 03:43:52;;;;;;;1.17;0.15;;;7.80;99.90;;;;;;5096288;28;20020;-75
2023/04/20 03:46:17;;;;;;;5.55;0.73;;;7.80;99.90;;;;;;5095953;28;20017;-75
2023/04/20 03:48:43;;;;;;;0.98;0.43;;;7.80;99.90;;;;;;5078343;28;20059;-75
2023/04/20 03:51:08;;;;;;;2.33;0.10;;;7.90;99.90;;;;;;5077928;28;20043;-75
2023/04/20 03:53:34;;;;;;;1.05;0.38;;;8.00;99.90;;;;;;5096448;28;20051;-75
2023/04/20 03:56:00;;;;;;;0.80;0.20;;;8.10;99.90;;;;;;5096312;28;20058;-75
2023/04/20 03:58:26;;;;;;;3.30;0.28;;;8.10;99.90;;;;;;5078211;28;20063;-75
2023/04/20 04:00:59;;;;;;;2.60;0.20;;;8.10;99.90;;;;;;5078027;28;20023;-75
2023/04/20 04:03:25;;;;;;;2.67;0.43;;;;;;;;;;5096206;28;20103;-75
2023/04/20 04:05:51;;;;;;;1.98;0.10;;;8.10;99.90;;;;;;5095934;28;20394;-75
2023/04/20 04:08:16;;;;;;;1.70;0.50;;;8.10;99.90;;;;;;5095963;28;20020;-75
2023/04/20 04:10:42;;;;;;;2.97;0.22;;;9.70;99.90;;;;;;5096099;28;20031;-75
2023/04/20 04:13:07;;;;;;;1.30;0.15;;;8.20;99.90;;;;;;5077960;28;20027;-75
2023/04/20 04:15:33;;;;;;;1.50;0.15;;;8.20;99.90;;;;;;5095974;28;20047;-75
2023/04/20 04:17:58;;;;;;;2.47;0.28;;;8.20;99.90;;;;;;5095280;28;20089;-75
2023/04/20 04:20:24;;;;;;;2.00;0.20;;;8.20;99.90;;;;;;5095857;28;20017;-75
2023/04/20 04:22:50;;;;;;;0.93;0.05;;;8.20;99.90;;;;;;5077494;28;20047;-75
2023/04/20 04:25:16;;;;;;;4.32;0.47;;;8.30;99.90;;;;;;5095613;28;20024;-75
2023/04/20 04:27:42;;;;;;;2.15;0.05;;;8.20;99.90;;;;;;5095985;28;20505;-75
2023/04/20 04:30:10;;;;;;;2.88;0.50;;;8.30;99.90;;;;;;5077357;28;20502;-75
2023/04/20 04:32:36;;;;;;;0.60;0.05;;;8.30;99.90;;;;;;5077525;28;20043;-75
2023/04/20 04:35:02;;;;;;;3.22;0.30;;;8.30;99.90;;;;;;5077172;28;20043;-75
2023/04/20 04:37:28;;;;;;;1.95;0.45;;;8.30;99.90;;;;;;5095251;28;20024;-75
2023/04/20 04:39:53;;;;;;;2.72;0.20;;;8.30;99.90;;;;;;5095177;28;20028;-75
2023/04/20 04:42:19;;;;;;;3.50;0.10;;;8.40;99.90;;;;;;5095895;28;20513;-75
2023/04/20 04:44:44;;;;;;;3.35;0.10;;;8.40;99.90;;;;;;5095091;28;20032;-75
2023/04/20 04:47:10;;;;;;;2.25;0.13;;;8.40;99.90;;;;;;5077187;28;20024;-76
2023/04/20 04:49:36;;;;;;;2.00;0.30;;;;;;;;;;5095132;28;20441;-76
2023/04/20 04:52:02;;;;;;;2.08;0.70;;;8.40;99.90;;;;;;5095774;28;20524;-76
2023/04/20 04:54:28;;;;;;;2.38;0.10;;;8.40;99.90;;;;;;5095001;28;20040;-76
2023/04/20 04:56:53;;;;;;;0.50;0.10;;;8.40;99.90;;;;;;5095031;28;20039;-75
2023/04/20 04:59:19;;;;;;;0.68;0.10;;;8.50;99.90;;;;;;5075595;28;20506;-75
2023/04/20 05:01:45;;;;;;;3.47;0.80;;;8.60;99.90;;;;;;5075471;28;20019;-76
2023/04/20 05:04:10;;;;;;;4.85;0.10;;;8.50;99.90;;;;;;5076397;28;20020;-75
2023/04/20 05:06:36;;;;;;;1.30;0.08;;;8.50;99.90;;;;;;5095014;28;20017;-76
2023/04/20 05:09:01;;;;;;;4.50;0.30;;;8.50;99.90;;;;;;5094620;28;20024;-75
2023/04/20 05:11:27;;;;;;;0.50;0.03;;;8.60;99.90;;;;;;5075957;28;20016;-75
2023/04/20 05:13:53;;;;;;;1.45;0.20;;;8.50;99.90;;;;;;5094485;28;20028;-76
2023/04/20 05:16:19;;;;;;;2.38;0.40;;;8.50;99.90;;;;;;5076857;28;20020;-75
2023/04/20 05:18:44;;;;;;;0.65;0.08;;;8.60;99.90;;;;;;5094564;28;20547;-76
2023/04/20 05:21:11;;;;;;;2.70;0.13;;;8.60;99.90;;;;;;5094833;28;20356;-76
2023/04/20 05:23:37;;;;;;;2.75;0.10;;;8.60;99.90;;;;;;5076234;28;20031;-76
2023/04/20 05:26:02;;;;;;;0.80;0.00;;;8.60;99.90;;;;;;5093972;28;20028;-76
2023/04/20 05:28:28;;;;;;;0.93;0.10;;;8.60;99.90;;;;;;5094740;28;20027;-75
2023/04/20 05:30:54;;;;;;;2.00;0.20;;;8.60;99.90;;;;;;5094349;28;20020;-75
2023/04/20 05:33:20;;;;;;;1.45;0.82;;;9.90;99.90;;;;;;5094491;28;20473;-76
2023/04/20 05:35:45;;;;;;;1.00;0.10;;;8.60;99.90;;;;;;5094374;28;20032;-75
2023/04/20 05:38:11;;;;;;;5.38;0.40;;;8.50;99.90;;;;;;5075838;28;20028;-76
2023/04/20 05:40:36;;;;;;;5.28;0.03;;;8.50;99.90;;;;;;5094874;28;20024;-76
2023/04/20 05:43:02;;;;;;;5.00;0.25;;;8.50;99.90;;;;;;5094903;28;20028;-76
2023/04/20 05:45:28;;;;;;;2.63;0.28;;;8.50;99.90;;;;;;5094244;28;20020;-77
2023/04/20 05:47:54;;;;;;;1.60;0.10;;;8.50;99.90;;;;;;5093988;28;20059;-76
2023/04/20 05:50:21;;;;;;;2.58;0.47;;;9.00;99.90;;;;;;5075854;28;20491;-76
2023/04/20 05:52:47;;;;;;;2.42;0.38;;;8.50;99.90;;;;;;5093498;28;20051;-76
2023/04/20 05:55:12;;;;;;;2.22;0.20;;;8.50;99.90;;;;;;5075462;28;20059;-76
2023/04/20 05:57:41;;;;;;;2.92;0.68;;;8.50;99.90;;;;;;5093578;28;20032;-76
2023/04/20 06:00:11;;;;;;;4.30;0.40;;;8.50;99.90;;;;;;5093951;28;20020;-76
2023/04/20 06:02:37;;;;;;;1.95;0.35;;;8.60;99.90;;;;;;5093312;28;20024;-76
2023/04/20 06:05:03;;;;;;;1.35;0.10;;;8.60;99.90;;;;;;5075664;28;20024;-76
2023/04/20 06:07:29;;;;;;;4.13;0.00;;;8.60;99.90;;;;;;5075794;28;20406;-76
2023/04/20 06:09:56;;;;;;;1.35;0.00;;;8.60;99.90;;;;;;5097706;28;20016;-75
2023/04/20 06:12:22;;;;;;;1.63;0.20;;;8.60;99.90;;;;;;5097676;28;20020;-75
2023/04/20 06:14:47;;;;;;;1.15;0.00;;;8.70;99.90;;;;;;5097927;28;20043;-75
2023/04/20 06:17:13;;;;;;;7.90;0.93;;;8.80;99.90;;;;;;5079008;28;20379;-75
2023/04/20 06:19:38;;;;;;;3.00;0.15;;;10.00;99.90;;;;;;5097598;28;20032;-75
2023/04/20 06:22:07;;;;;;;2.42;0.20;;;8.90;99.90;;;;;;5098088;28;20451;-75
2023/04/20 06:24:34;;;;;;;4.32;0.30;;;9.00;99.90;;;;;;5097299;28;20074;-75
2023/04/20 06:27:00;;;;;;;1.90;0.10;;;9.10;99.90;;;;;;5079098;28;20497;-75
2023/04/20 06:29:26;;;;;;;2.50;0.43;;;9.10;99.90;;;;;;5078959;28;20016;-76
2023/04/20 06:31:52;;;;;;;6.90;0.73;;;9.10;99.90;;;;;;5096891;28;20564;-77
2023/04/20 06:34:18;;;;;;;3.25;0.05;;;9.00;99.90;;;;;;5079083;28;20028;-76
2023/04/20 06:36:43;;;;;;;0.38;0.20;;;9.00;99.90;;;;;;5097248;28;20432;-74
2023/04/20 06:39:10;;;;;;;2.38;0.30;;;9.00;99.90;;;;;;5078817;28;20051;-75
2023/04/20 06:41:37;;;;;;;5.00;0.85;;;8.90;99.90;;;;;;5078888;28;20118;-75
2023/04/20 06:44:03;;;;;;;2.55;0.03;;;8.90;99.90;;;;;;5097055;28;20387;-75
2023/04/20 06:46:28;;;;;;;4.82;0.30;;;8.90;99.90;;;;;;5097076;28;20035;-75
2023/04/20 06:48:54;;;;;;;2.40;0.20;;;8.90;99.90;;;;;;5094517;28;20032;-74
2023/04/20 06:51:19;;;;;;;2.00;0.32;;;8.90;99.90;;;;;;5096668;28;20104;-74
2023/04/20 06:53:45;;;;;;;3.25;0.45;;;8.80;99.90;;;;;;5096197;28;20032;-74
2023/04/20 06:56:11;;;;;;;4.63;0.30;;;8.70;99.90;;;;;;5096736;28;20115;-74
2023/04/20 06:58:36;;;;;;;5.72;0.65;;;8.60;99.90;;;;;;5078205;28;20024;-74
2023/04/20 07:01:02;;;;;;;1.98;0.30;;;8.60;99.90;;;;;;5078395;28;20020;-74
2023/04/20 07:03:27;;;;;;;0.57;0.10;;;8.50;99.90;;;;;;5096503;28;20016;-74
2023/04/20 07:05:53;;;;;;;3.22;0.15;;;8.30;99.90;;;;;;5096227;28;20025;-73
2023/04/20 07:08:19;;;;;;;2.05;0.70;;;8.20;99.90;;;;;;5096263;28;20035;-74
2023/04/20 07:10:44;;;;;;;2.58;0.57;;;8.00;99.90;;;;;;5078117;28;20085;-74
2023/04/20 07:13:10;;;;;;;3.53;0.60;;;8.10;99.90;;;;;;5096321;28;20478;-74
2023/04/20 07:15:36;;;;;;;3.85;0.73;;;7.90;99.90;;;;;;5078139;28;20024;-73
2023/04/20 07:18:01;;;;;;;4.63;0.55;;;7.90;99.90;;;;;;5095734;28;20532;-74
2023/04/20 07:20:27;;;;;;;5.13;0.43;;;7.80;99.90;;;;;;5076633;28;20051;-73
2023/04/20 07:22:53;;;;;;;4.53;0.90;;;7.80;99.90;;;;;;5096330;28;20030;-74
2023/04/20 07:25:18;;;;;;;4.22;0.40;;;7.80;99.90;;;;;;5094749;28;20344;-73
2023/04/20 07:27:44;;;;;;;6.55;0.60;;;7.80;99.90;;;;;;5077942;28;20074;-74
2023/04/20 07:30:10;;;;;;;4.88;0.55;;;7.80;99.90;;;;;;5077680;28;20110;-73
2023/04/20 07:32:37;;;;;;;2.47;0.77;;;7.80;99.90;;;;;;5095665;28;20099;-73
2023/04/20 07:35:03;;;;;;;2.65;0.75;;;7.80;99.90;;;;;;5095684;28;20389;-74
2023/04/20 07:37:30;;;;;;;5.25;0.90;;;7.70;99.90;;;;;;5095679;28;20024;-73
2023/04/20 07:39:55;;;;;;;1.75;0.52;;;7.80;99.90;;;;;;5095926;28;20019;-73
2023/04/20 07:42:21;;;;;;;1.88;0.40;;;7.80;99.90;;;;;;5077621;28;20387;-73
2023/04/20 07:44:47;;;;;;;3.60;0.88;;;7.80;99.90;;;;;;5095678;28;20016;-74
2023/04/20 07:47:13;;;;;;;3.08;0.20;;;8.00;99.90;;;;;;5095269;28;20027;-73
2023/04/20 07:49:40;;;;;;;5.07;0.60;;;;;;;;;;5095614;28;20044;-74
2023/04/20 07:52:06;;;;;;;3.35;0.90;;;8.10;99.90;;;;;;5077485;28;20073;-73
2023/04/20 07:54:32;;;;;;;3.00;0.40;;;8.30;99.90;;;;;;5077447;28;20028;-73
2023/04/20 07:57:02;;;;;;;2.42;0.47;;;8.40;99.90;;;;;;5095436;28;20028;-73
2023/04/20 07:59:28;;;;;;;1.30;0.30;;;8.40;99.90;;;;;;5076990;28;20031;-74
2023/04/20 08:01:59;;;;;;;3.20;0.90;;;8.30;99.90;;;;;;5076854;28;20024;-74
2023/04/20 08:04:25;;;;;;;1.00;0.40;;;8.30;99.90;;;;;;5076986;28;20020;-74
2023/04/20 08:06:51;;;;;;;3.53;0.30;;;8.20;99.90;;;;;;5076967;28;20016;-74
2023/04/20 08:09:16;;;;;;;5.03;0.88;;;8.10;99.90;;;;;;5095285;28;20051;-74
2023/04/20 08:11:44;;;;;;;1.25;0.40;;;8.00;99.90;;;;;;5077403;28;20364;-74
2023/04/20 08:14:11;;;;;;;6.13;0.68;;;8.00;99.90;;;;;;5095230;28;20013;-73
2023/04/20 08:16:36;;;;;;;2.92;0.68;;;8.00;99.90;;;;;;5076300;28;20028;-73
2023/04/20 08:19:08;;;;;;;1.92;0.50;;;7.90;99.90;;;;;;5076452;28;20555;-74
2023/04/20 08:21:43;;;;;;;2.72;0.63;;;8.00;99.90;;;;;;5076929;28;20016;-74
2023/04/20 08:24:09;;;;;;;2.70;0.70;;;7.90;99.90;;;;;;5076598;28;20027;-74
2023/04/20 08:26:35;;;;;;;2.00;0.50;;;8.00;99.90;;;;;;5094634;28;20379;-74
2023/04/20 08:29:01;;;;;;;6.70;0.98;;;8.00;99.90;;;;;;5094986;28;20114;-74
2023/04/20 08:31:27;;;;;;;1.90;0.80;;;8.00;99.90;;;;;;5095267;28;20020;-74
2023/04/20 08:33:53;;;;;;;2.38;0.90;;;8.00;99.90;;;;;;5075891;28;20031;-74
2023/04/20 08:36:19;;;;;;;3.17;0.40;;;8.10;99.90;;;;;;5094982;28;20077;-74
2023/04/20 08:38:45;;;;;;;3.92;0.63;;;8.10;99.90;;;;;;5094765;28;20103;-73
2023/04/20 08:41:12;;;;;;;6.68;0.40;;;8.20;99.90;;;;;;5094580;28;20020;-73
2023/04/20 08:43:38;;;;;;;5.70;0.65;;;8.10;99.90;;;;;;5076637;28;20387;-73
2023/04/20 08:46:04;;;;;;;2.08;0.60;;;8.10;99.90;;;;;;5094655;28;20043;-74
2023/04/20 08:48:36;;;;;;;2.90;0.73;;;8.00;99.90;;;;;;5094774;28;20028;-73
2023/04/20 08:51:03;;;;;;;2.03;0.60;;;8.20;99.90;;;;;;5076393;28;20028;-74
2023/04/20 08:53:30;;;;;;;0.60;0.20;;;8.40;99.90;;;;;;5094682;28;20040;-74
2023/04/20 08:55:56;;;;;;;4.22;0.60;;;8.50;99.90;;;;;;5076292;28;20024;-73
2023/04/20 08:58:30;;;;;;;0.90;0.60;;;8.80;99.90;;;;;;5076258;28;20016;-74
2023/04/20 09:00:56;;;;;;;5.07;0.50;;;8.90;99.90;;;;;;5093866;28;20028;-74
2023/04/20 09:03:39;;;;;;;1.50;0.50;;;8.90;99.90;;;;;;5093474;28;20023;-73
2023/04/20 09:06:13;;;;;;;7.05;1.05;;;8.90;99.90;;;;;;5093155;28;20024;-74
2023/04/20 09:08:40;;;;;;;1.75;0.30;;;8.90;99.90;;;;;;5094106;28;20145;-74
2023/04/20 09:11:06;;;;;;;1.13;0.50;;;8.90;99.90;;;;;;5094239;28;20076;-73
2023/04/20 09:13:32;;;;;;;1.85;0.40;;;9.00;99.90;;;;;;5075512;28;20376;-74
2023/04/20 09:16:18;;;;;;;6.38;0.73;;;8.90;99.90;;;;;;5093687;28;20107;-74
2023/04/20 09:18:52;;;;;;;4.10;0.45;;;9.00;99.90;;;;;;5093527;28;20039;-74
2023/04/20 09:21:17;;;;;;;4.32;0.55;;;9.00;99.90;;;;;;5075789;28;20020;-74
2023/04/20 09:23:54;;;;;;;2.15;0.63;;;9.20;99.90;;;;;;5075636;28;20284;-74
2023/04/20 09:26:19;;;;;;;2.35;0.68;;;9.20;99.90;;;;;;5094157;28;20016;-74
2023/04/20 09:28:46;;;;;;;6.32;1.13;;;9.20;99.90;;;;;;5075262;28;20034;-73
2023/04/20 09:31:21;;;;;;;3.00;0.63;;;9.60;99.90;;;;;;5093837;28;20364;-74
2023/04/20 09:34:01;;;;;;;5.82;0.75;;;10.10;99.90;;;;;;5075705;28;20047;-73
2023/04/20 09:36:37;;;;;;;3.47;0.40;;;10.60;99.90;;;;;;5075831;28;20487;-74
2023/04/20 09:39:21;;;;;;;2.10;0.57;;;10.70;99.90;;;;;;5075416;28;20030;-73
2023/04/20 09:41:49;;;;;;;3.17;0.63;;;10.70;99.90;;;;;;5075335;28;20077;-74
2023/04/20 09:44:16;;;;;;;2.40;0.75;;;10.70;99.90;;;;;;5075110;28;20421;-74
2023/04/20 09:46:43;;;;;;;4.45;0.82;;;11.00;99.90;;;;;;5093482;28;20055;-74
2023/04/20 09:49:10;;;;;;;2.92;0.60;;;11.00;99.90;;;;;;5075657;28;20119;-74
2023/04/20 09:51:38;;;;;;;1.58;0.63;;;11.00;99.90;;;;;;5093686;28;20028;-73
2023/04/20 09:54:05;;;;;;;2.53;0.63;;;11.10;99.90;;;;;;5093585;28;20425;-74
2023/04/20 09:56:32;;;;;;;3.38;0.52;;;11.00;99.90;;;;;;5092852;28;20034;-74
2023/04/20 09:58:59;;;;;;;5.05;1.02;;;11.00;99.90;;;;;;5075349;28;20544;-74
2023/04/20 10:01:26;;;;;;;4.68;0.93;;;10.90;99.90;;;;;;5093573;28;20485;-74
2023/04/20 10:03:55;;;;;;;3.22;0.88;;;10.70;99.90;;;;;;5093464;28;20404;-73
2023/04/20 10:06:25;;;;;;;;;;;10.60;99.90;;;;;;5093561;28;20020;-75
2023/04/20 10:08:51;;;;;;;3.00;0.70;;;10.60;99.90;;;;;;5090596;28;19915;-74
2023/04/20 10:11:36;;;;;;;4.45;1.17;;;10.50;99.90;;;;;;5075289;28;20028;-73
2023/04/20 10:14:16;;;;;;;5.63;0.80;;;10.50;99.90;;;;;;5075254;28;20024;-74
2023/04/20 10:16:43;;;;;;;2.88;0.98;;;10.30;99.90;;;;;;5093340;28;20029;-74
2023/04/20 10:19:09;;;;;;;11.48;1.45;;;10.30;99.90;;;;;;5075198;28;20407;-74
2023/04/20 10:21:45;;;;;;;3.45;0.80;;;10.20;99.90;;;;;;5073468;28;20023;-74
2023/04/20 10:24:11;;;;;;;3.05;0.98;;;10.20;99.90;;;;;;5075360;28;20380;-74
2023/04/20 10:26:38;;;;;;;4.32;1.30;;;10.50;99.90;;;;;;5075090;28;20059;-74
2023/04/20 10:29:07;;;;;;;3.75;0.70;;;10.50;99.90;;;;;;5093002;28;20031;-74
2023/04/20 10:31:37;;;;;;;;;;;10.80;99.90;;;;;;5075455;28;20032;-74
2023/04/20 10:34:03;;;;;;;3.65;1.10;;;10.80;99.90;;;;;;5074915;28;19904;-74
2023/04/20 10:36:35;;;;;;;4.13;1.52;;;11.00;99.90;;;;;;5074967;28;20032;-74
2023/04/20 10:39:16;;;;;;;3.50;0.95;;;11.00;99.90;;;;;;5093329;28;20032;-74
2023/04/20 10:41:53;;;;;;;3.22;0.95;;;11.00;99.90;;;;;;5075182;28;20085;-74
2023/04/20 10:44:19;;;;;;;3.22;0.95;;;11.10;99.90;;;;;;5093069;28;20020;-72
2023/04/20 10:46:49;;;;;;;6.28;1.92;;;11.20;99.90;;;;;;5074892;28;20024;-72
2023/04/20 10:49:15;;;;;;;4.47;1.08;;;11.20;99.90;;;;;;5092616;28;20020;-72
2023/04/20 10:51:51;;;;;;;3.53;0.93;;;11.20;99.90;;;;;;5092814;28;20042;-72
2023/04/20 10:54:20;;;;;;;3.17;1.02;;;11.30;99.90;;;;;;5076009;28;20441;-72
2023/04/20 10:56:47;;;;;;;3.10;0.90;;;11.40;99.90;;;;;;5078729;28;20027;-72
2023/04/20 10:59:21;;;;;;;5.60;1.02;;;11.50;99.90;;;;;;5097018;28;20392;-72
2023/04/20 11:01:48;;;;;;;6.75;1.27;;;11.50;99.90;;;;;;5078561;28;20024;-72
2023/04/20 11:04:14;;;;;;;2.20;1.10;;;11.40;99.90;;;;;;5078200;28;20425;-72
2023/04/20 11:06:43;;;;;;;3.28;0.77;;;11.30;99.90;;;;;;5096252;28;20530;-72
2023/04/20 11:09:37;;;;;;;2.08;0.60;;;11.20;99.90;;;;;;5096679;28;20028;-72
2023/04/20 11:12:02;;;;;;;4.22;1.73;;;10.90;99.90;;;;;;5093203;28;20119;-72
2023/04/20 11:14:29;;;;;;;5.70;1.40;;;10.80;99.90;;;;;;5078237;28;20066;-73
2023/04/20 11:16:55;;;;;;;4.05;1.13;;;10.60;99.90;;;;;;5096747;28;20119;-72
2023/04/20 11:19:29;;;;;;;13.68;1.55;;;10.60;99.90;;;;;;5078230;28;20115;-73
2023/04/20 11:21:55;;;;;;;7.63;1.55;;;10.60;99.90;;;;;;5077887;28;20127;-72
2023/04/20 11:24:22;;;;;;;3.03;1.25;;;10.70;99.90;;;;;;5096238;28;20103;-73
2023/04/20 11:26:49;;;;;;;3.10;1.42;;;11.30;99.90;;;;;;5096255;28;20028;-72
2023/04/20 11:29:36;;;;;;;4.03;1.10;;;11.30;99.90;;;;;;5095919;28;20021;-72
2023/04/20 11:32:05;;;;;;;2.55;1.00;;;12.80;99.90;;;;;;5096320;28;20024;-72
2023/04/20 11:34:31;;;;;;;2.33;1.05;;;12.80;99.90;;;;;;5095784;28;20550;-72
2023/04/20 11:37:09;;;;;;;4.18;0.88;;;13.50;99.90;;;;;;5095692;28;20051;-72
2023/04/20 11:39:35;;;;;;;2.13;0.65;;;13.50;99.90;;;;;;5077985;28;20148;-72
2023/04/20 11:42:02;;;;;;;3.42;0.32;;;13.20;99.90;;;;;;5096015;28;20497;-72
2023/04/20 11:44:28;;;;;;;3.90;0.80;;;13.00;99.90;;;;;;5096033;28;20024;-72
2023/04/20 11:46:55;;;;;;;1.50;0.70;;;12.70;99.80;;;;;;5077860;28;20165;-72
2023/04/20 11:49:22;;;;;;;2.90;0.67;;;12.70;99.90;;;;;;5077442;28;20048;-72
2023/04/20 11:51:48;;;;;;;1.63;0.50;;;12.50;99.40;;;;;;5095633;28;20124;-72
2023/04/20 11:54:14;;;;;;;0.65;0.30;;;12.40;99.80;;;;;;5096025;28;20020;-72
2023/04/20 11:56:43;;;;;;;2.60;0.80;;;12.50;99.00;;;;;;5095736;28;20024;-72
2023/04/20 11:59:10;;;;;;;2.10;0.40;;;12.40;99.10;;;;;;5095670;28;20115;-72
2023/04/20 12:01:36;;;;;;;2.72;1.00;;;12.40;98.80;;;;;;5095534;28;20024;-72
2023/04/20 12:04:02;;;;;;;2.00;0.65;;;12.40;98.50;;;;;;5095125;28;20111;-72
2023/04/20 12:06:29;;;;;;;1.83;0.80;;;12.20;99.90;;;;;;5094210;28;20048;-73
2023/04/20 12:08:55;;;;;;;3.08;0.60;;;12.20;99.90;;;;;;5095320;28;20063;-72
2023/04/20 12:11:21;;;;;;;1.20;0.40;;;12.30;99.90;;;;;;5076463;28;20024;-72
2023/04/20 12:13:46;;;;;;;2.38;0.28;;;12.20;99.90;;;;;;5095307;28;20036;-72
2023/04/20 12:16:12;;;;;;;2.10;0.40;;;12.20;99.60;;;;;;5095274;28;20100;-72
2023/04/20 12:18:38;;;;;;;2.08;0.93;;;12.00;98.30;;;;;;5094962;28;20035;-72
2023/04/20 12:21:04;;;;;;;1.75;0.75;;;12.00;98.90;;;;;;5095302;28;20103;-72
2023/04/20 12:23:29;;;;;;;1.65;0.63;;;11.90;98.20;;;;;;5095428;28;20136;-72
2023/04/20 12:25:55;;;;;;;1.55;0.57;;;11.70;97.40;;;;;;5094582;28;20040;-72
2023/04/20 12:28:21;;;;;;;1.45;0.63;;;11.60;98.20;;;;;;5095589;28;20024;-72
2023/04/20 12:30:46;;;;;;;0.85;0.60;;;11.50;98.50;;;;;;5093275;28;20039;-72
2023/04/20 12:33:12;;;;;;;2.35;0.52;;;11.40;98.50;;;;;;5093588;28;20078;-72
2023/04/20 12:35:37;;;;;;;1.10;0.57;;;11.30;99.20;;;;;;5076691;28;20024;-72
2023/04/20 12:38:03;;;;;;;1.52;0.57;;;11.20;99.30;;;;;;5092494;28;20455;-72
2023/04/20 12:40:28;;;;;;;1.70;0.60;;;11.20;99.90;;;;;;5094284;28;20035;-72
2023/04/20 12:42:55;;;;;;;1.23;0.20;;;11.10;99.90;;;;;;5094609;28;20047;-72
2023/04/20 12:45:20;;;;;;;1.35;0.47;;;11.10;99.90;;;;;;5094623;28;20388;-72
2023/04/20 12:47:46;;;;;;;2.47;0.68;;;11.10;99.20;;;;;;5094405;28;20027;-72
2023/04/20 12:50:11;;;;;;;1.48;0.63;;;11.00;99.20;;;;;;5094476;28;20079;-72
2023/04/20 12:52:38;;;;;;;1.45;0.75;;;11.00;99.40;;;;;;5094544;28;20099;-71
2023/04/20 12:55:04;;;;;;;1.23;0.20;;;11.00;99.70;;;;;;5094030;28;20032;-72